sensor_id;sensor_type;location;lat;lon;timestamp;P1;durP1;ratioP1;P2;durP2;ratioP2
7875;SDS011;69649;53.712;9.680;2023-11-19T00:00:16;5.07;;;4.27;;
7875;SDS011;69649;53.712;9.680;2023-11-19T00:02:42;4.17;;;3.77;;
7875;SDS011;69649;53.712;9.680;2023-11-19T00:05:08;4.93;;;3.80;;
7875;SDS011;69649;53.712;9.680;2023-11-19T00:07:35;4.27;;;3.87;;
7875;SDS011;69649;53.712;9.680;2023-11-19T00:10:02;4.17;;;3.77;;
7875;SDS011;69649;53.712;9.680;2023-11-19T00:12:32;4.20;;;3.63;;
7875;SDS011;69649;53.712;9.680;2023-11-19T00:14:58;4.43;;;3.70;;
7875;SDS011;69649;53.712;9.680;2023-11-19T00:17:23;4.30;;;3.90;;
7875;SDS011;69649;53.712;9.680;2023-11-19T00:19:49;6.33;;;5.73;;
7875;SDS011;69649;53.712;9.680;2023-11-19T00:22:16;4.37;;;4.07;;
7875;SDS011;69649;53.712;9.680;2023-11-19T00:24:42;4.90;;;4.03;;
7875;SDS011;69649;53.712;9.680;2023-11-19T00:27:08;4.40;;;4.00;;
7875;SDS011;69649;53.712;9.680;2023-11-19T00:29:34;5.40;;;3.53;;
7875;SDS011;69649;53.712;9.680;2023-11-19T00:31:59;4.03;;;3.70;;
7875;SDS011;69649;53.712;9.680;2023-11-19T00:34:25;4.50;;;4.10;;
7875;SDS011;69649;53.712;9.680;2023-11-19T00:36:51;3.90;;;3.60;;
7875;SDS011;69649;53.712;9.680;2023-11-19T00:39:17;4.70;;;4.10;;
7875;SDS011;69649;53.712;9.680;2023-11-19T00:41:43;4.03;;;3.67;;
7875;SDS011;69649;53.712;9.680;2023-11-19T00:44:09;4.27;;;3.87;;
7875;SDS011;69649;53.712;9.680;2023-11-19T00:46:34;4.20;;;3.80;;
7875;SDS011;69649;53.712;9.680;2023-11-19T00:49:00;4.47;;;3.60;;
7875;SDS011;69649;53.712;9.680;2023-11-19T00:51:26;5.27;;;4.07;;
7875;SDS011;69649;53.712;9.680;2023-11-19T00:53:52;3.77;;;3.30;;
7875;SDS011;69649;53.712;9.680;2023-11-19T00:56:18;4.50;;;3.80;;
7875;SDS011;69649;53.712;9.680;2023-11-19T00:58:45;4.47;;;4.03;;
7875;SDS011;69649;53.712;9.680;2023-11-19T01:01:14;3.57;;;3.27;;
7875;SDS011;69649;53.712;9.680;2023-11-19T01:03:40;3.73;;;3.43;;
7875;SDS011;69649;53.712;9.680;2023-11-19T01:06:05;5.73;;;2.80;;
7875;SDS011;69649;53.712;9.680;2023-11-19T01:08:33;3.50;;;3.20;;
7875;SDS011;69649;53.712;9.680;2023-11-19T01:11:01;3.60;;;3.30;;
7875;SDS011;69649;53.712;9.680;2023-11-19T01:13:27;3.33;;;3.13;;
7875;SDS011;69649;53.712;9.680;2023-11-19T01:15:53;2.93;;;2.73;;
7875;SDS011;69649;53.712;9.680;2023-11-19T01:18:21;4.23;;;3.93;;
7875;SDS011;69649;53.712;9.680;2023-11-19T01:20:47;3.40;;;3.00;;
7875;SDS011;69649;53.712;9.680;2023-11-19T01:23:13;3.63;;;3.17;;
7875;SDS011;69649;53.712;9.680;2023-11-19T01:25:39;2.70;;;2.50;;
7875;SDS011;69649;53.712;9.680;2023-11-19T01:28:04;2.83;;;2.63;;
7875;SDS011;69649;53.712;9.680;2023-11-19T01:30:30;3.23;;;2.50;;
7875;SDS011;69649;53.712;9.680;2023-11-19T01:32:56;2.70;;;2.50;;
7875;SDS011;69649;53.712;9.680;2023-11-19T01:35:22;3.60;;;3.30;;
7875;SDS011;69649;53.712;9.680;2023-11-19T01:37:48;2.93;;;2.73;;
7875;SDS011;69649;53.712;9.680;2023-11-19T01:40:19;2.70;;;2.50;;
7875;SDS011;69649;53.712;9.680;2023-11-19T01:42:46;3.93;;;3.63;;
7875;SDS011;69649;53.712;9.680;2023-11-19T01:45:17;3.13;;;2.93;;
7875;SDS011;69649;53.712;9.680;2023-11-19T01:47:41;3.23;;;2.93;;
7875;SDS011;69649;53.712;9.680;2023-11-19T01:50:07;2.73;;;2.53;;
7875;SDS011;69649;53.712;9.680;2023-11-19T01:52:34;3.40;;;2.97;;
7875;SDS011;69649;53.712;9.680;2023-11-19T01:55:04;3.43;;;2.77;;
7875;SDS011;69649;53.712;9.680;2023-11-19T01:57:30;3.20;;;2.77;;
7875;SDS011;69649;53.712;9.680;2023-11-19T01:59:56;2.60;;;2.40;;
7875;SDS011;69649;53.712;9.680;2023-11-19T02:02:22;2.73;;;2.47;;
7875;SDS011;69649;53.712;9.680;2023-11-19T02:04:49;2.80;;;2.60;;
7875;SDS011;69649;53.712;9.680;2023-11-19T02:07:16;2.53;;;2.33;;
7875;SDS011;69649;53.712;9.680;2023-11-19T02:09:43;2.70;;;2.50;;
7875;SDS011;69649;53.712;9.680;2023-11-19T02:12:09;2.50;;;2.30;;
7875;SDS011;69649;53.712;9.680;2023-11-19T02:14:37;2.83;;;2.63;;
7875;SDS011;69649;53.712;9.680;2023-11-19T02:17:04;2.40;;;2.30;;
7875;SDS011;69649;53.712;9.680;2023-11-19T02:19:30;3.57;;;3.37;;
7875;SDS011;69649;53.712;9.680;2023-11-19T02:21:56;2.83;;;2.50;;
7875;SDS011;69649;53.712;9.680;2023-11-19T02:24:22;1.90;;;1.80;;
7875;SDS011;69649;53.712;9.680;2023-11-19T02:27:07;2.03;;;1.93;;
7875;SDS011;69649;53.712;9.680;2023-11-19T02:29:36;2.10;;;2.00;;
7875;SDS011;69649;53.712;9.680;2023-11-19T02:32:01;2.17;;;2.07;;
7875;SDS011;69649;53.712;9.680;2023-11-19T02:34:28;2.50;;;2.40;;
7875;SDS011;69649;53.712;9.680;2023-11-19T02:36:54;2.20;;;2.10;;
7875;SDS011;69649;53.712;9.680;2023-11-19T02:42:07;2.43;;;2.33;;
7875;SDS011;69649;53.712;9.680;2023-11-19T02:44:33;2.43;;;2.33;;
7875;SDS011;69649;53.712;9.680;2023-11-19T02:46:59;2.00;;;1.90;;
7875;SDS011;69649;53.712;9.680;2023-11-19T02:49:25;2.27;;;2.17;;
7875;SDS011;69649;53.712;9.680;2023-11-19T02:51:51;2.60;;;2.13;;
7875;SDS011;69649;53.712;9.680;2023-11-19T02:54:17;2.57;;;2.03;;
7875;SDS011;69649;53.712;9.680;2023-11-19T02:56:43;1.87;;;1.77;;
7875;SDS011;69649;53.712;9.680;2023-11-19T02:59:09;2.53;;;2.43;;
7875;SDS011;69649;53.712;9.680;2023-11-19T03:01:36;2.10;;;2.00;;
7875;SDS011;69649;53.712;9.680;2023-11-19T03:04:02;2.40;;;2.30;;
7875;SDS011;69649;53.712;9.680;2023-11-19T03:06:29;2.83;;;2.73;;
7875;SDS011;69649;53.712;9.680;2023-11-19T03:08:55;2.37;;;2.23;;
7875;SDS011;69649;53.712;9.680;2023-11-19T03:11:21;2.30;;;2.20;;
7875;SDS011;69649;53.712;9.680;2023-11-19T03:13:47;4.50;;;2.50;;
7875;SDS011;69649;53.712;9.680;2023-11-19T03:16:12;2.50;;;2.30;;
7875;SDS011;69649;53.712;9.680;2023-11-19T03:18:39;2.50;;;2.40;;
7875;SDS011;69649;53.712;9.680;2023-11-19T03:21:07;2.10;;;2.00;;
7875;SDS011;69649;53.712;9.680;2023-11-19T03:23:33;2.50;;;2.40;;
7875;SDS011;69649;53.712;9.680;2023-11-19T03:26:00;2.67;;;2.57;;
7875;SDS011;69649;53.712;9.680;2023-11-19T03:28:28;3.63;;;3.43;;
7875;SDS011;69649;53.712;9.680;2023-11-19T03:30:53;2.00;;;1.90;;
7875;SDS011;69649;53.712;9.680;2023-11-19T03:33:19;4.30;;;2.40;;
7875;SDS011;69649;53.712;9.680;2023-11-19T03:35:45;3.67;;;3.43;;
7875;SDS011;69649;53.712;9.680;2023-11-19T03:38:11;3.20;;;3.00;;
7875;SDS011;69649;53.712;9.680;2023-11-19T03:43:22;3.17;;;2.97;;
7875;SDS011;69649;53.712;9.680;2023-11-19T03:45:48;4.00;;;3.47;;
7875;SDS011;69649;53.712;9.680;2023-11-19T03:48:14;4.37;;;3.40;;
7875;SDS011;69649;53.712;9.680;2023-11-19T03:50:44;3.87;;;3.57;;
7875;SDS011;69649;53.712;9.680;2023-11-19T03:53:11;4.23;;;3.53;;
7875;SDS011;69649;53.712;9.680;2023-11-19T03:55:37;3.80;;;3.50;;
7875;SDS011;69649;53.712;9.680;2023-11-19T03:58:03;4.93;;;4.53;;
7875;SDS011;69649;53.712;9.680;2023-11-19T04:00:28;7.30;;;4.20;;
7875;SDS011;69649;53.712;9.680;2023-11-19T04:02:54;4.67;;;4.27;;
7875;SDS011;69649;53.712;9.680;2023-11-19T04:05:20;5.27;;;4.20;;
7875;SDS011;69649;53.712;9.680;2023-11-19T04:07:46;5.17;;;4.30;;
7875;SDS011;69649;53.712;9.680;2023-11-19T04:10:12;5.30;;;4.73;;
7875;SDS011;69649;53.712;9.680;2023-11-19T04:12:38;5.37;;;4.87;;
7875;SDS011;69649;53.712;9.680;2023-11-19T04:15:04;4.77;;;4.33;;
7875;SDS011;69649;53.712;9.680;2023-11-19T04:17:31;5.90;;;5.20;;
7875;SDS011;69649;53.712;9.680;2023-11-19T04:19:56;5.53;;;4.50;;
7875;SDS011;69649;53.712;9.680;2023-11-19T04:22:22;5.37;;;4.87;;
7875;SDS011;69649;53.712;9.680;2023-11-19T04:24:48;7.40;;;5.37;;
7875;SDS011;69649;53.712;9.680;2023-11-19T04:27:14;8.93;;;5.03;;
7875;SDS011;69649;53.712;9.680;2023-11-19T04:29:39;5.83;;;5.30;;
7875;SDS011;69649;53.712;9.680;2023-11-19T04:32:05;7.00;;;6.03;;
7875;SDS011;69649;53.712;9.680;2023-11-19T04:34:32;6.30;;;5.53;;
7875;SDS011;69649;53.712;9.680;2023-11-19T04:36:58;6.97;;;5.80;;
7875;SDS011;69649;53.712;9.680;2023-11-19T04:39:25;16.37;;;7.70;;
7875;SDS011;69649;53.712;9.680;2023-11-19T04:41:52;9.37;;;6.43;;
7875;SDS011;69649;53.712;9.680;2023-11-19T04:44:18;8.70;;;6.67;;
7875;SDS011;69649;53.712;9.680;2023-11-19T04:46:44;8.33;;;6.53;;
7875;SDS011;69649;53.712;9.680;2023-11-19T04:49:11;10.57;;;6.93;;
7875;SDS011;69649;53.712;9.680;2023-11-19T04:51:38;12.33;;;7.33;;
7875;SDS011;69649;53.712;9.680;2023-11-19T04:54:05;10.10;;;6.60;;
7875;SDS011;69649;53.712;9.680;2023-11-19T04:56:34;8.33;;;6.60;;
7875;SDS011;69649;53.712;9.680;2023-11-19T04:59:05;9.30;;;7.27;;
7875;SDS011;69649;53.712;9.680;2023-11-19T05:01:32;14.13;;;7.70;;
7875;SDS011;69649;53.712;9.680;2023-11-19T05:03:58;13.00;;;7.80;;
7875;SDS011;69649;53.712;9.680;2023-11-19T05:06:27;9.43;;;7.17;;
7875;SDS011;69649;53.712;9.680;2023-11-19T05:08:56;10.93;;;8.23;;
7875;SDS011;69649;53.712;9.680;2023-11-19T05:11:23;11.97;;;8.13;;
7875;SDS011;69649;53.712;9.680;2023-11-19T05:13:49;13.63;;;9.70;;
7875;SDS011;69649;53.712;9.680;2023-11-19T05:16:15;14.00;;;8.53;;
7875;SDS011;69649;53.712;9.680;2023-11-19T05:18:46;13.43;;;9.10;;
7875;SDS011;69649;53.712;9.680;2023-11-19T05:21:12;14.33;;;7.87;;
7875;SDS011;69649;53.712;9.680;2023-11-19T05:23:38;14.53;;;9.93;;
7875;SDS011;69649;53.712;9.680;2023-11-19T05:26:04;11.80;;;8.00;;
7875;SDS011;69649;53.712;9.680;2023-11-19T05:28:31;17.60;;;10.40;;
7875;SDS011;69649;53.712;9.680;2023-11-19T05:30:57;16.17;;;9.07;;
7875;SDS011;69649;53.712;9.680;2023-11-19T05:33:22;17.13;;;8.87;;
7875;SDS011;69649;53.712;9.680;2023-11-19T05:35:48;14.43;;;8.93;;
7875;SDS011;69649;53.712;9.680;2023-11-19T05:38:14;22.83;;;8.77;;
7875;SDS011;69649;53.712;9.680;2023-11-19T05:40:40;15.93;;;9.03;;
7875;SDS011;69649;53.712;9.680;2023-11-19T05:43:06;15.13;;;8.40;;
7875;SDS011;69649;53.712;9.680;2023-11-19T05:45:32;15.40;;;8.70;;
7875;SDS011;69649;53.712;9.680;2023-11-19T05:47:58;18.03;;;9.07;;
7875;SDS011;69649;53.712;9.680;2023-11-19T05:50:24;16.83;;;6.90;;
7875;SDS011;69649;53.712;9.680;2023-11-19T05:52:50;13.63;;;7.47;;
7875;SDS011;69649;53.712;9.680;2023-11-19T05:55:16;17.57;;;7.00;;
7875;SDS011;69649;53.712;9.680;2023-11-19T05:57:41;16.60;;;7.70;;
7875;SDS011;69649;53.712;9.680;2023-11-19T06:00:08;17.70;;;7.67;;
7875;SDS011;69649;53.712;9.680;2023-11-19T06:02:36;16.47;;;7.73;;
7875;SDS011;69649;53.712;9.680;2023-11-19T06:05:03;26.53;;;8.77;;
7875;SDS011;69649;53.712;9.680;2023-11-19T06:07:31;14.03;;;6.73;;
7875;SDS011;69649;53.712;9.680;2023-11-19T06:09:57;13.00;;;6.93;;
7875;SDS011;69649;53.712;9.680;2023-11-19T06:12:23;16.53;;;6.50;;
7875;SDS011;69649;53.712;9.680;2023-11-19T06:14:49;12.97;;;6.00;;
7875;SDS011;69649;53.712;9.680;2023-11-19T06:17:14;15.43;;;5.40;;
7875;SDS011;69649;53.712;9.680;2023-11-19T06:19:40;10.07;;;5.50;;
7875;SDS011;69649;53.712;9.680;2023-11-19T06:22:06;21.03;;;5.97;;
7875;SDS011;69649;53.712;9.680;2023-11-19T06:24:32;14.40;;;5.17;;
7875;SDS011;69649;53.712;9.680;2023-11-19T06:26:57;15.57;;;5.40;;
7875;SDS011;69649;53.712;9.680;2023-11-19T06:29:23;9.17;;;4.87;;
7875;SDS011;69649;53.712;9.680;2023-11-19T06:31:50;17.93;;;5.60;;
7875;SDS011;69649;53.712;9.680;2023-11-19T06:34:16;13.07;;;4.87;;
7875;SDS011;69649;53.712;9.680;2023-11-19T06:36:42;17.17;;;5.07;;
7875;SDS011;69649;53.712;9.680;2023-11-19T06:39:09;12.77;;;4.97;;
7875;SDS011;69649;53.712;9.680;2023-11-19T06:41:36;27.13;;;5.47;;
7875;SDS011;69649;53.712;9.680;2023-11-19T06:44:05;11.13;;;3.80;;
7875;SDS011;69649;53.712;9.680;2023-11-19T06:46:31;14.90;;;4.70;;
7875;SDS011;69649;53.712;9.680;2023-11-19T06:48:57;15.23;;;3.90;;
7875;SDS011;69649;53.712;9.680;2023-11-19T06:51:23;12.20;;;4.03;;
7875;SDS011;69649;53.712;9.680;2023-11-19T06:53:49;13.90;;;4.50;;
7875;SDS011;69649;53.712;9.680;2023-11-19T06:56:22;15.87;;;3.80;;
7875;SDS011;69649;53.712;9.680;2023-11-19T06:58:50;20.37;;;4.37;;
7875;SDS011;69649;53.712;9.680;2023-11-19T07:01:16;18.87;;;4.43;;
7875;SDS011;69649;53.712;9.680;2023-11-19T07:03:46;15.23;;;4.50;;
7875;SDS011;69649;53.712;9.680;2023-11-19T07:06:12;16.87;;;4.03;;
7875;SDS011;69649;53.712;9.680;2023-11-19T07:08:38;11.97;;;4.07;;
7875;SDS011;69649;53.712;9.680;2023-11-19T07:11:06;11.40;;;4.57;;
7875;SDS011;69649;53.712;9.680;2023-11-19T07:13:32;20.53;;;5.23;;
7875;SDS011;69649;53.712;9.680;2023-11-19T07:15:58;8.97;;;3.50;;
7875;SDS011;69649;53.712;9.680;2023-11-19T07:18:23;18.70;;;4.63;;
7875;SDS011;69649;53.712;9.680;2023-11-19T07:20:50;20.70;;;4.67;;
7875;SDS011;69649;53.712;9.680;2023-11-19T07:23:16;12.13;;;3.83;;
7875;SDS011;69649;53.712;9.680;2023-11-19T07:25:44;24.60;;;4.87;;
7875;SDS011;69649;53.712;9.680;2023-11-19T07:28:12;13.30;;;4.50;;
7875;SDS011;69649;53.712;9.680;2023-11-19T07:30:38;23.40;;;5.10;;
7875;SDS011;69649;53.712;9.680;2023-11-19T07:33:04;15.10;;;4.03;;
7875;SDS011;69649;53.712;9.680;2023-11-19T07:35:31;21.63;;;3.90;;
7875;SDS011;69649;53.712;9.680;2023-11-19T07:37:57;15.47;;;4.37;;
7875;SDS011;69649;53.712;9.680;2023-11-19T07:40:27;18.97;;;4.33;;
7875;SDS011;69649;53.712;9.680;2023-11-19T07:42:51;23.20;;;4.17;;
7875;SDS011;69649;53.712;9.680;2023-11-19T07:45:17;22.20;;;4.70;;
7875;SDS011;69649;53.712;9.680;2023-11-19T07:47:43;15.97;;;5.10;;
7875;SDS011;69649;53.712;9.680;2023-11-19T07:50:11;17.70;;;5.57;;
7875;SDS011;69649;53.712;9.680;2023-11-19T07:52:39;16.07;;;4.80;;
7875;SDS011;69649;53.712;9.680;2023-11-19T07:55:05;19.67;;;4.90;;
7875;SDS011;69649;53.712;9.680;2023-11-19T07:57:31;15.40;;;4.30;;
7875;SDS011;69649;53.712;9.680;2023-11-19T07:59:57;18.27;;;4.37;;
7875;SDS011;69649;53.712;9.680;2023-11-19T08:02:23;21.77;;;5.20;;
7875;SDS011;69649;53.712;9.680;2023-11-19T08:04:49;15.10;;;3.93;;
7875;SDS011;69649;53.712;9.680;2023-11-19T08:07:17;21.03;;;4.33;;
7875;SDS011;69649;53.712;9.680;2023-11-19T08:09:44;15.63;;;5.20;;
7875;SDS011;69649;53.712;9.680;2023-11-19T08:12:10;20.77;;;4.83;;
7875;SDS011;69649;53.712;9.680;2023-11-19T08:14:36;20.93;;;4.67;;
7875;SDS011;69649;53.712;9.680;2023-11-19T08:17:02;16.77;;;4.87;;
7875;SDS011;69649;53.712;9.680;2023-11-19T08:19:28;13.47;;;3.43;;
7875;SDS011;69649;53.712;9.680;2023-11-19T08:21:54;19.70;;;4.77;;
7875;SDS011;69649;53.712;9.680;2023-11-19T08:24:20;20.53;;;6.20;;
7875;SDS011;69649;53.712;9.680;2023-11-19T08:26:45;21.43;;;5.53;;
7875;SDS011;69649;53.712;9.680;2023-11-19T08:29:11;20.97;;;5.70;;
7875;SDS011;69649;53.712;9.680;2023-11-19T08:31:38;16.60;;;5.27;;
7875;SDS011;69649;53.712;9.680;2023-11-19T08:34:04;20.63;;;5.53;;
7875;SDS011;69649;53.712;9.680;2023-11-19T08:36:32;19.10;;;4.73;;
7875;SDS011;69649;53.712;9.680;2023-11-19T08:38:58;17.03;;;5.60;;
7875;SDS011;69649;53.712;9.680;2023-11-19T08:41:24;18.67;;;4.57;;
7875;SDS011;69649;53.712;9.680;2023-11-19T08:43:50;15.80;;;4.77;;
7875;SDS011;69649;53.712;9.680;2023-11-19T08:46:17;23.90;;;5.50;;
7875;SDS011;69649;53.712;9.680;2023-11-19T08:48:42;19.50;;;6.03;;
7875;SDS011;69649;53.712;9.680;2023-11-19T08:51:08;14.23;;;4.57;;
7875;SDS011;69649;53.712;9.680;2023-11-19T08:53:34;17.60;;;5.03;;
7875;SDS011;69649;53.712;9.680;2023-11-19T08:56:00;16.80;;;4.40;;
7875;SDS011;69649;53.712;9.680;2023-11-19T08:58:27;20.63;;;5.30;;
7875;SDS011;69649;53.712;9.680;2023-11-19T09:00:55;20.70;;;4.10;;
7875;SDS011;69649;53.712;9.680;2023-11-19T09:03:21;24.07;;;4.70;;
7875;SDS011;69649;53.712;9.680;2023-11-19T09:05:47;15.50;;;4.23;;
7875;SDS011;69649;53.712;9.680;2023-11-19T09:08:12;26.73;;;5.03;;
7875;SDS011;69649;53.712;9.680;2023-11-19T09:10:38;22.17;;;6.10;;
7875;SDS011;69649;53.712;9.680;2023-11-19T09:13:04;23.97;;;4.33;;
7875;SDS011;69649;53.712;9.680;2023-11-19T09:15:29;21.60;;;5.30;;
7875;SDS011;69649;53.712;9.680;2023-11-19T09:17:55;21.20;;;5.10;;
7875;SDS011;69649;53.712;9.680;2023-11-19T09:20:21;20.50;;;5.17;;
7875;SDS011;69649;53.712;9.680;2023-11-19T09:22:47;17.97;;;4.77;;
7875;SDS011;69649;53.712;9.680;2023-11-19T09:25:13;21.80;;;4.67;;
7875;SDS011;69649;53.712;9.680;2023-11-19T09:27:41;16.23;;;5.23;;
7875;SDS011;69649;53.712;9.680;2023-11-19T09:30:07;18.40;;;5.63;;
7875;SDS011;69649;53.712;9.680;2023-11-19T09:32:34;23.00;;;4.87;;
7875;SDS011;69649;53.712;9.680;2023-11-19T09:34:59;15.47;;;3.73;;
7875;SDS011;69649;53.712;9.680;2023-11-19T09:37:26;25.50;;;5.20;;
7875;SDS011;69649;53.712;9.680;2023-11-19T09:39:51;20.70;;;5.27;;
7875;SDS011;69649;53.712;9.680;2023-11-19T09:42:18;19.13;;;5.13;;
7875;SDS011;69649;53.712;9.680;2023-11-19T09:44:44;21.77;;;4.90;;
7875;SDS011;69649;53.712;9.680;2023-11-19T09:47:12;22.17;;;5.43;;
7875;SDS011;69649;53.712;9.680;2023-11-19T09:49:39;22.97;;;7.47;;
7875;SDS011;69649;53.712;9.680;2023-11-19T09:52:06;25.83;;;5.97;;
7875;SDS011;69649;53.712;9.680;2023-11-19T09:54:31;12.17;;;3.67;;
7875;SDS011;69649;53.712;9.680;2023-11-19T09:56:57;18.47;;;6.07;;
7875;SDS011;69649;53.712;9.680;2023-11-19T09:59:26;11.47;;;4.10;;
7875;SDS011;69649;53.712;9.680;2023-11-19T10:01:53;25.90;;;6.17;;
7875;SDS011;69649;53.712;9.680;2023-11-19T10:04:19;23.27;;;5.53;;
7875;SDS011;69649;53.712;9.680;2023-11-19T10:06:45;24.37;;;4.93;;
7875;SDS011;69649;53.712;9.680;2023-11-19T10:09:11;23.73;;;6.80;;
7875;SDS011;69649;53.712;9.680;2023-11-19T10:11:39;24.27;;;5.30;;
7875;SDS011;69649;53.712;9.680;2023-11-19T10:14:05;14.77;;;4.53;;
7875;SDS011;69649;53.712;9.680;2023-11-19T10:16:31;17.13;;;4.83;;
7875;SDS011;69649;53.712;9.680;2023-11-19T10:19:00;22.97;;;5.30;;
7875;SDS011;69649;53.712;9.680;2023-11-19T10:21:25;15.83;;;4.13;;
7875;SDS011;69649;53.712;9.680;2023-11-19T10:23:56;25.97;;;5.07;;
7875;SDS011;69649;53.712;9.680;2023-11-19T10:26:24;16.00;;;5.60;;
7875;SDS011;69649;53.712;9.680;2023-11-19T10:28:50;16.53;;;4.23;;
7875;SDS011;69649;53.712;9.680;2023-11-19T10:31:16;21.73;;;5.43;;
7875;SDS011;69649;53.712;9.680;2023-11-19T10:33:43;30.03;;;5.93;;
7875;SDS011;69649;53.712;9.680;2023-11-19T10:36:11;23.87;;;6.10;;
7875;SDS011;69649;53.712;9.680;2023-11-19T10:38:38;21.80;;;4.63;;
7875;SDS011;69649;53.712;9.680;2023-11-19T10:41:04;25.30;;;7.10;;
7875;SDS011;69649;53.712;9.680;2023-11-19T10:43:30;19.67;;;5.20;;
7875;SDS011;69649;53.712;9.680;2023-11-19T10:46:18;21.40;;;4.60;;
7875;SDS011;69649;53.712;9.680;2023-11-19T10:48:35;17.83;;;4.23;;
7875;SDS011;69649;53.712;9.680;2023-11-19T10:51:00;20.17;;;5.90;;
7875;SDS011;69649;53.712;9.680;2023-11-19T10:53:30;25.30;;;4.90;;
7875;SDS011;69649;53.712;9.680;2023-11-19T10:55:58;19.97;;;5.23;;
7875;SDS011;69649;53.712;9.680;2023-11-19T10:58:26;23.10;;;5.93;;
7875;SDS011;69649;53.712;9.680;2023-11-19T11:00:55;21.83;;;5.90;;
7875;SDS011;69649;53.712;9.680;2023-11-19T11:03:24;20.13;;;5.37;;
7875;SDS011;69649;53.712;9.680;2023-11-19T11:05:51;25.23;;;4.77;;
7875;SDS011;69649;53.712;9.680;2023-11-19T11:08:19;19.63;;;4.17;;
7875;SDS011;69649;53.712;9.680;2023-11-19T11:10:48;17.27;;;4.90;;
7875;SDS011;69649;53.712;9.680;2023-11-19T11:13:16;18.17;;;4.47;;
7875;SDS011;69649;53.712;9.680;2023-11-19T11:15:44;17.43;;;4.37;;
7875;SDS011;69649;53.712;9.680;2023-11-19T11:18:12;25.00;;;6.13;;
7875;SDS011;69649;53.712;9.680;2023-11-19T11:20:39;28.77;;;5.47;;
7875;SDS011;69649;53.712;9.680;2023-11-19T11:39:39;15.63;;;4.97;;
7875;SDS011;69649;53.712;9.680;2023-11-19T11:45:00;12.97;;;3.60;;
7875;SDS011;69649;53.712;9.680;2023-11-19T11:50:15;20.10;;;4.67;;
7875;SDS011;69649;53.712;9.680;2023-11-19T11:55:33;23.67;;;4.93;;
7875;SDS011;69649;53.712;9.680;2023-11-19T11:58:01;18.77;;;4.23;;
7875;SDS011;69649;53.712;9.680;2023-11-19T12:00:37;16.80;;;5.13;;
7875;SDS011;69649;53.712;9.680;2023-11-19T12:03:05;15.07;;;4.57;;
7875;SDS011;69649;53.712;9.680;2023-11-19T12:05:32;18.37;;;4.60;;
7875;SDS011;69649;53.712;9.680;2023-11-19T12:08:00;19.43;;;4.80;;
7875;SDS011;69649;53.712;9.680;2023-11-19T12:10:37;24.43;;;5.07;;
7875;SDS011;69649;53.712;9.680;2023-11-19T12:13:06;17.37;;;4.73;;
7875;SDS011;69649;53.712;9.680;2023-11-19T12:18:27;23.73;;;4.87;;
7875;SDS011;69649;53.712;9.680;2023-11-19T12:20:55;25.27;;;6.33;;
7875;SDS011;69649;53.712;9.680;2023-11-19T12:23:21;23.37;;;5.83;;
7875;SDS011;69649;53.712;9.680;2023-11-19T12:25:48;15.83;;;4.67;;
7875;SDS011;69649;53.712;9.680;2023-11-19T12:28:14;17.60;;;4.50;;
7875;SDS011;69649;53.712;9.680;2023-11-19T12:30:44;19.30;;;4.73;;
7875;SDS011;69649;53.712;9.680;2023-11-19T12:33:11;28.30;;;5.10;;
7875;SDS011;69649;53.712;9.680;2023-11-19T12:35:41;26.33;;;4.83;;
7875;SDS011;69649;53.712;9.680;2023-11-19T12:38:20;21.60;;;5.97;;
7875;SDS011;69649;53.712;9.680;2023-11-19T12:40:47;20.53;;;4.40;;
7875;SDS011;69649;53.712;9.680;2023-11-19T12:43:21;20.20;;;4.17;;
7875;SDS011;69649;53.712;9.680;2023-11-19T12:45:50;19.57;;;6.33;;
7875;SDS011;69649;53.712;9.680;2023-11-19T12:48:15;24.00;;;5.17;;
7875;SDS011;69649;53.712;9.680;2023-11-19T12:50:54;18.93;;;5.37;;
7875;SDS011;69649;53.712;9.680;2023-11-19T12:53:25;23.60;;;4.97;;
7875;SDS011;69649;53.712;9.680;2023-11-19T12:55:52;15.50;;;4.40;;
7875;SDS011;69649;53.712;9.680;2023-11-19T12:58:37;24.90;;;4.53;;
7875;SDS011;69649;53.712;9.680;2023-11-19T13:01:05;23.90;;;5.13;;
7875;SDS011;69649;53.712;9.680;2023-11-19T13:03:33;20.37;;;5.57;;
7875;SDS011;69649;53.712;9.680;2023-11-19T13:06:01;24.27;;;5.27;;
7875;SDS011;69649;53.712;9.680;2023-11-19T13:08:37;20.57;;;5.13;;
7875;SDS011;69649;53.712;9.680;2023-11-19T13:11:04;15.73;;;4.27;;
7875;SDS011;69649;53.712;9.680;2023-11-19T13:13:31;19.90;;;4.00;;
7875;SDS011;69649;53.712;9.680;2023-11-19T13:16:04;17.13;;;4.03;;
7875;SDS011;69649;53.712;9.680;2023-11-19T13:18:34;20.67;;;5.00;;
7875;SDS011;69649;53.712;9.680;2023-11-19T13:21:00;22.53;;;4.97;;
7875;SDS011;69649;53.712;9.680;2023-11-19T13:23:26;18.70;;;4.10;;
7875;SDS011;69649;53.712;9.680;2023-11-19T13:25:51;14.00;;;4.03;;
7875;SDS011;69649;53.712;9.680;2023-11-19T13:28:17;17.80;;;4.80;;
7875;SDS011;69649;53.712;9.680;2023-11-19T13:30:43;20.53;;;4.93;;
7875;SDS011;69649;53.712;9.680;2023-11-19T13:33:09;20.60;;;4.47;;
7875;SDS011;69649;53.712;9.680;2023-11-19T13:35:36;20.57;;;4.97;;
7875;SDS011;69649;53.712;9.680;2023-11-19T13:38:04;17.07;;;5.10;;
7875;SDS011;69649;53.712;9.680;2023-11-19T13:40:29;21.10;;;6.27;;
7875;SDS011;69649;53.712;9.680;2023-11-19T13:42:55;18.93;;;5.50;;
7875;SDS011;69649;53.712;9.680;2023-11-19T13:45:21;20.93;;;4.03;;
7875;SDS011;69649;53.712;9.680;2023-11-19T13:47:47;23.87;;;5.87;;
7875;SDS011;69649;53.712;9.680;2023-11-19T13:50:13;24.10;;;5.50;;
7875;SDS011;69649;53.712;9.680;2023-11-19T13:52:41;21.93;;;5.70;;
7875;SDS011;69649;53.712;9.680;2023-11-19T13:55:08;18.57;;;4.77;;
7875;SDS011;69649;53.712;9.680;2023-11-19T13:57:36;27.97;;;5.73;;
7875;SDS011;69649;53.712;9.680;2023-11-19T14:00:03;16.40;;;4.93;;
7875;SDS011;69649;53.712;9.680;2023-11-19T14:02:32;13.17;;;4.67;;
7875;SDS011;69649;53.712;9.680;2023-11-19T14:04:59;23.50;;;4.63;;
7875;SDS011;69649;53.712;9.680;2023-11-19T14:07:25;27.97;;;4.77;;
7875;SDS011;69649;53.712;9.680;2023-11-19T14:09:51;22.37;;;5.40;;
7875;SDS011;69649;53.712;9.680;2023-11-19T14:12:17;14.83;;;3.83;;
7875;SDS011;69649;53.712;9.680;2023-11-19T14:14:43;22.53;;;5.43;;
7875;SDS011;69649;53.712;9.680;2023-11-19T14:17:09;14.37;;;3.70;;
7875;SDS011;69649;53.712;9.680;2023-11-19T14:19:36;20.93;;;4.93;;
7875;SDS011;69649;53.712;9.680;2023-11-19T14:22:03;17.03;;;4.27;;
7875;SDS011;69649;53.712;9.680;2023-11-19T14:24:29;22.07;;;4.10;;
7875;SDS011;69649;53.712;9.680;2023-11-19T14:26:55;15.47;;;3.70;;
7875;SDS011;69649;53.712;9.680;2023-11-19T14:29:23;12.03;;;3.90;;
7875;SDS011;69649;53.712;9.680;2023-11-19T14:31:48;12.70;;;3.00;;
7875;SDS011;69649;53.712;9.680;2023-11-19T14:34:14;10.73;;;3.17;;
7875;SDS011;69649;53.712;9.680;2023-11-19T14:36:40;8.57;;;3.30;;
7875;SDS011;69649;53.712;9.680;2023-11-19T14:39:06;13.00;;;3.40;;
7875;SDS011;69649;53.712;9.680;2023-11-19T14:41:32;16.67;;;6.13;;
7875;SDS011;69649;53.712;9.680;2023-11-19T14:43:58;8.80;;;3.20;;
7875;SDS011;69649;53.712;9.680;2023-11-19T14:46:24;14.97;;;3.67;;
7875;SDS011;69649;53.712;9.680;2023-11-19T14:48:49;10.57;;;2.53;;
7875;SDS011;69649;53.712;9.680;2023-11-19T14:51:16;10.20;;;4.63;;
7875;SDS011;69649;53.712;9.680;2023-11-19T14:53:42;8.30;;;2.80;;
7875;SDS011;69649;53.712;9.680;2023-11-19T14:56:10;4.83;;;2.43;;
7875;SDS011;69649;53.712;9.680;2023-11-19T14:58:36;6.60;;;2.77;;
7875;SDS011;69649;53.712;9.680;2023-11-19T15:01:01;10.67;;;4.20;;
7875;SDS011;69649;53.712;9.680;2023-11-19T15:03:29;6.00;;;2.33;;
7875;SDS011;69649;53.712;9.680;2023-11-19T15:05:55;4.70;;;2.03;;
7875;SDS011;69649;53.712;9.680;2023-11-19T15:08:20;6.60;;;2.60;;
7875;SDS011;69649;53.712;9.680;2023-11-19T15:10:46;6.27;;;2.43;;
7875;SDS011;69649;53.712;9.680;2023-11-19T15:13:12;5.93;;;2.60;;
7875;SDS011;69649;53.712;9.680;2023-11-19T15:15:38;7.43;;;2.70;;
7875;SDS011;69649;53.712;9.680;2023-11-19T15:18:07;4.97;;;2.30;;
7875;SDS011;69649;53.712;9.680;2023-11-19T15:20:35;7.27;;;2.37;;
7875;SDS011;69649;53.712;9.680;2023-11-19T15:23:01;6.93;;;2.27;;